createdAt,value
2018-02-15T00:01:40.937Z,99987.73
2018-02-15T00:04:10.193Z,99999.22
2018-02-15T00:09:07.857Z,99985.94
2018-02-15T00:11:37.885Z,99973.30
2018-02-15T00:14:07.110Z,99983.39
2018-02-15T00:16:36.367Z,100008.08
2018-02-15T00:19:06.399Z,99996.67
2018-02-15T00:21:35.594Z,99982.96
2018-02-15T00:24:04.883Z,99988.19
2018-02-15T00:26:34.296Z,99985.94
2018-02-15T00:29:03.514Z,99984.30
2018-02-15T00:31:34.274Z,99980.42
2018-02-15T00:34:03.495Z,99985.25
2018-02-15T00:36:33.458Z,99983.33
2018-02-15T00:39:02.678Z,99974.79
2018-02-15T00:41:31.906Z,99973.05
2018-02-15T00:44:01.130Z,99963.62
2018-02-15T00:46:31.372Z,99951.53
2018-02-15T00:49:00.571Z,99960.82
2018-02-15T00:51:29.799Z,99948.88
2018-02-15T00:53:59.195Z,99935.45
2018-02-15T00:56:28.434Z,99924.02
2018-02-15T00:58:57.758Z,99913.02
2018-02-15T01:01:26.971Z,99908.48
2018-02-15T01:03:56.261Z,99921.52
2018-02-15T01:06:25.489Z,99921.37
2018-02-15T01:08:54.877Z,99929.42
2018-02-15T01:11:24.169Z,99933.59
2018-02-15T01:13:53.379Z,99930.34
2018-02-15T01:16:22.608Z,99921.73
2018-02-15T01:18:52.671Z,99913.97
2018-02-15T01:21:22.024Z,99916.77
2018-02-15T01:23:51.211Z,99927.62
2018-02-15T01:26:20.447Z,99930.02
2018-02-15T01:28:50.470Z,99933.09
2018-02-15T01:31:19.908Z,99915.86
2018-02-15T01:33:49.310Z,99905.26
2018-02-15T01:36:18.550Z,99877.45
2018-02-15T01:38:48.592Z,99888.70
2018-02-15T01:41:17.992Z,99902.14
2018-02-15T01:43:47.218Z,99897.31
2018-02-15T01:46:16.415Z,99881.92
2018-02-15T01:48:45.642Z,99886.34
2018-02-15T01:51:14.899Z,99879.48
2018-02-15T01:53:45.707Z,99878.55
2018-02-15T01:56:14.943Z,99882.57
2018-02-15T01:58:44.171Z,99884.81
2018-02-15T02:01:13.393Z,99888.16
2018-02-15T02:03:42.827Z,99881.19
2018-02-15T02:06:12.035Z,99879.95
2018-02-15T02:08:41.279Z,99880.79
2018-02-15T02:11:11.254Z,99870.84
2018-02-15T02:13:40.566Z,99873.39
2018-02-15T02:16:09.790Z,99886.89
2018-02-15T02:18:40.039Z,99888.02
2018-02-15T02:21:09.262Z,99878.25
2018-02-15T02:23:38.484Z,99884.83
2018-02-15T02:26:07.700Z,99876.08
2018-02-15T02:28:36.923Z,99874.14
2018-02-15T02:31:06.118Z,99862.13
2018-02-15T02:33:35.327Z,99861.84
2018-02-15T02:36:04.550Z,99870.55
2018-02-15T02:38:33.819Z,99871.39
2018-02-15T02:41:03.794Z,99864.59
2018-02-15T02:43:33.028Z,99863.00
2018-02-15T02:46:03.113Z,99854.55
2018-02-15T02:48:32.518Z,99855.48
2018-02-15T02:51:02.653Z,99852.32
2018-02-15T02:53:32.634Z,99843.02
2018-02-15T02:56:01.871Z,99844.10
2018-02-15T02:58:32.023Z,99841.42
2018-02-15T03:01:01.271Z,99831.68
2018-02-15T03:03:30.634Z,99836.75
2018-02-15T03:05:59.888Z,99832.52
2018-02-15T03:08:29.953Z,99834.27
2018-02-15T03:10:59.185Z,99830.20
2018-02-15T03:13:28.584Z,99828.65
2018-02-15T03:15:57.820Z,99831.48
2018-02-15T03:18:27.783Z,99828.56
2018-02-15T03:20:57.024Z,99817.27
2018-02-15T03:23:26.442Z,99816.21
2018-02-15T03:25:55.723Z,99820.05
2018-02-15T03:28:25.748Z,99819.20
2018-02-15T03:30:56.156Z,99816.27
2018-02-15T03:33:26.266Z,99827.95
2018-02-15T03:35:55.639Z,99825.20
2018-02-15T03:38:24.852Z,99823.57
2018-02-15T03:40:54.071Z,99829.20
2018-02-15T03:43:24.070Z,99826.66
2018-02-15T03:45:53.277Z,99845.47
2018-02-15T03:48:23.284Z,99843.83
2018-02-15T03:50:52.539Z,99826.17
2018-02-15T03:53:21.755Z,99846.81
2018-02-15T03:55:50.958Z,99832.45
2018-02-15T03:58:20.297Z,99833.13
2018-02-15T04:00:50.258Z,99830.64
2018-02-15T04:03:19.531Z,99836.31
2018-02-15T04:05:48.873Z,99829.34
2018-02-15T04:08:18.300Z,99831.99
2018-02-15T04:10:48.382Z,99829.59
2018-02-15T04:13:17.622Z,99836.52
2018-02-15T04:15:47.608Z,99830.20
2018-02-15T04:18:16.901Z,99843.94
2018-02-15T04:20:46.315Z,99840.56
2018-02-15T04:23:15.516Z,99842.84
2018-02-15T04:25:44.752Z,99854.34
2018-02-15T04:28:13.983Z,99860.12
2018-02-15T04:30:43.215Z,99856.69
2018-02-15T04:33:12.430Z,99853.44
2018-02-15T04:35:42.424Z,99842.30
2018-02-15T04:38:11.628Z,99848.56
2018-02-15T04:40:41.718Z,99836.55
2018-02-15T04:43:11.833Z,99833.92
2018-02-15T04:45:41.084Z,99845.32
2018-02-15T04:48:11.046Z,99841.64
2018-02-15T04:50:40.275Z,99842.92
2018-02-15T04:53:10.996Z,99834.52
2018-02-15T04:55:40.223Z,99834.20
2018-02-15T04:58:10.234Z,99831.20
2018-02-15T05:00:40.530Z,99820.80
2018-02-15T05:03:09.733Z,99822.77
2018-02-15T05:05:38.968Z,99822.70
2018-02-15T05:08:09.078Z,99808.55
2018-02-15T05:10:39.149Z,99794.73
2018-02-15T05:13:08.448Z,99797.28
2018-02-15T05:15:37.670Z,99807.94
2018-02-15T05:18:07.064Z,99801.42
2018-02-15T05:20:36.258Z,99797.42
2018-02-15T05:23:05.495Z,99787.78
2018-02-15T05:25:35.489Z,99772.22
2018-02-15T05:28:04.809Z,99765.19
2018-02-15T05:30:34.800Z,99760.66
2018-02-15T05:33:04.019Z,99758.02
2018-02-15T05:35:33.998Z,99753.27
2018-02-15T05:38:03.275Z,99754.23
2018-02-15T05:40:32.485Z,99745.17
2018-02-15T05:43:01.697Z,99743.58
2018-02-15T05:45:30.922Z,99742.38
2018-02-15T05:48:00.927Z,99724.55
2018-02-15T05:50:30.962Z,99729.84
2018-02-15T05:53:00.958Z,99731.29
2018-02-15T05:55:30.315Z,99724.55
2018-02-15T05:57:59.694Z,99723.75
2018-02-15T06:00:28.927Z,99714.40
2018-02-15T06:02:59.024Z,99726.33
2018-02-15T06:05:29.017Z,99722.48
2018-02-15T06:07:59.028Z,99708.16
2018-02-15T06:10:28.318Z,99705.27
2018-02-15T06:12:58.330Z,99707.29
2018-02-15T06:15:28.351Z,99710.34
2018-02-15T06:17:57.544Z,99711.56
2018-02-15T06:20:27.533Z,99701.09
2018-02-15T06:22:56.752Z,99703.48
2018-02-15T06:25:26.914Z,99692.14
2018-02-15T06:27:56.178Z,99699.39
2018-02-15T06:30:26.181Z,99696.16
2018-02-15T06:32:55.384Z,99693.23
2018-02-15T06:35:24.654Z,99700.91
2018-02-15T06:37:53.957Z,99691.05
2018-02-15T06:40:23.182Z,99694.53
2018-02-15T06:42:52.375Z,99686.63
2018-02-15T06:45:22.456Z,99679.84
2018-02-15T06:47:51.650Z,99680.96
2018-02-15T06:50:20.905Z,99680.59
2018-02-15T06:52:50.093Z,99681.91
2018-02-15T06:55:19.317Z,99683.87
2018-02-15T06:57:48.549Z,99674.52
2018-02-15T07:00:17.768Z,99672.89
2018-02-15T07:02:47.009Z,99674.48
2018-02-15T07:05:16.213Z,99678.83
2018-02-15T07:07:45.500Z,99672.78
2018-02-15T07:10:14.776Z,99662.74
2018-02-15T07:12:45.546Z,99661.91
2018-02-15T07:15:14.907Z,99658.66
2018-02-15T07:17:44.110Z,99661.73
2018-02-15T07:20:14.110Z,99658.37
2018-02-15T07:22:43.360Z,99647.36
2018-02-15T07:25:13.444Z,99657.03
2018-02-15T07:27:43.484Z,99661.16
2018-02-15T07:30:13.455Z,99658.19
2018-02-15T07:32:42.723Z,99667.39
2018-02-15T07:35:11.952Z,99671.92
2018-02-15T07:37:41.167Z,99672.17
2018-02-15T07:40:11.181Z,99668.55
2018-02-15T07:42:40.440Z,99681.95
2018-02-15T07:45:09.676Z,99693.20
2018-02-15T07:47:40.378Z,99674.50
2018-02-15T07:50:09.650Z,99674.06
2018-02-15T07:52:38.856Z,99663.88
2018-02-15T07:55:08.078Z,99667.47
2018-02-15T07:57:37.286Z,99664.86
2018-02-15T08:00:06.646Z,99671.56
2018-02-15T08:02:36.590Z,99681.16
2018-02-15T08:05:05.860Z,99672.83
2018-02-15T08:07:35.086Z,99655.94
2018-02-15T08:10:04.291Z,99658.83
2018-02-15T08:12:33.547Z,99664.16
2018-02-15T08:15:03.490Z,99655.96
2018-02-15T08:17:32.714Z,99661.03
2018-02-15T08:20:03.432Z,99652.66
2018-02-15T08:22:32.780Z,99647.94
2018-02-15T08:25:02.854Z,99651.30
2018-02-15T08:27:32.086Z,99654.50
2018-02-15T08:30:02.090Z,99655.69
2018-02-15T08:32:31.320Z,99656.59
2018-02-15T08:35:00.723Z,99657.59
2018-02-15T08:37:30.008Z,99657.95
2018-02-15T08:39:59.336Z,99657.20
2018-02-15T08:42:28.571Z,99659.19
2018-02-15T08:44:58.718Z,99657.27
2018-02-15T08:47:28.036Z,99668.20
2018-02-15T08:49:58.003Z,99667.91
2018-02-15T08:52:27.212Z,99669.88
2018-02-15T08:54:56.535Z,99673.92
2018-02-15T08:57:26.536Z,99663.23
2018-02-15T08:59:57.276Z,99667.61
2018-02-15T09:02:26.503Z,99668.64
2018-02-15T09:04:55.769Z,99671.77
2018-02-15T09:07:25.780Z,99673.77
2018-02-15T09:09:54.988Z,99671.71
2018-02-15T09:12:24.962Z,99675.95
2018-02-15T09:14:54.198Z,99666.48
2018-02-15T09:17:24.187Z,99674.09
2018-02-15T09:19:53.495Z,99669.16
2018-02-15T09:22:22.732Z,99670.94
2018-02-15T09:24:52.751Z,99659.47
2018-02-15T09:27:21.986Z,99674.61
2018-02-15T09:29:52.695Z,99673.44
2018-02-15T09:32:26.455Z,99672.92
2018-02-15T09:34:56.267Z,99672.23
2018-02-15T09:37:25.504Z,99658.14
2018-02-15T09:39:54.749Z,99650.13
2018-02-15T09:42:23.951Z,99658.98
2018-02-15T09:44:53.263Z,99667.80
2018-02-15T09:47:22.762Z,99658.06
2018-02-15T09:49:51.987Z,99664.87
2018-02-15T09:52:21.987Z,99672.55
2018-02-15T09:54:52.023Z,99675.64
2018-02-15T09:57:22.016Z,99661.45
2018-02-15T09:59:52.198Z,99671.96
2018-02-15T10:02:21.421Z,99682.31
2018-02-15T10:04:50.598Z,99681.69
2018-02-15T10:07:19.839Z,99690.47
2018-02-15T10:09:49.828Z,99687.13
2018-02-15T10:12:19.050Z,99677.62
2018-02-15T10:14:49.009Z,99678.23
2018-02-15T10:17:18.244Z,99677.59
2018-02-15T10:19:47.419Z,99670.27
2018-02-15T10:22:16.678Z,99680.21
2018-02-15T10:24:45.869Z,99670.61
2018-02-15T10:27:15.104Z,99683.00
2018-02-15T10:29:44.312Z,99683.73
2018-02-15T10:32:13.501Z,99680.98
2018-02-15T10:34:42.859Z,99674.81
2018-02-15T10:37:13.027Z,99672.53
2018-02-15T10:39:42.236Z,99673.33
2018-02-15T10:42:11.471Z,99680.44
2018-02-15T10:44:40.668Z,99679.34
2018-02-15T10:47:10.771Z,99676.66
2018-02-15T10:49:39.999Z,99673.37
2018-02-15T10:52:09.197Z,99665.70
2018-02-15T10:54:38.428Z,99670.84
2018-02-15T10:57:07.646Z,99680.27
2018-02-15T10:59:36.926Z,99678.42
2018-02-15T11:02:11.536Z,99684.74
2018-02-15T11:04:46.202Z,99677.41
2018-02-15T11:07:15.390Z,99678.70
2018-02-15T11:09:44.640Z,99687.09
2018-02-15T11:12:13.847Z,99691.92
2018-02-15T11:14:43.084Z,99684.80
2018-02-15T11:17:13.159Z,99690.73
2018-02-15T11:19:42.373Z,99699.99
2018-02-15T11:22:11.726Z,99698.88
2018-02-15T11:24:41.712Z,99698.03
2018-02-15T11:27:10.974Z,99708.97
2018-02-15T11:29:40.159Z,99698.95
2018-02-15T11:32:09.458Z,99711.20
2018-02-15T11:34:39.520Z,99705.75
2018-02-15T11:37:08.826Z,99703.96
2018-02-15T11:39:38.054Z,99713.88
2018-02-15T11:42:08.038Z,99701.13
2018-02-15T11:44:37.300Z,99708.64
2018-02-15T11:47:06.691Z,99707.92
2018-02-15T11:49:36.643Z,99711.11
2018-02-15T11:52:05.858Z,99709.05
2018-02-15T11:54:35.088Z,99719.35
2018-02-15T11:57:04.463Z,99720.23
2018-02-15T11:59:33.724Z,99718.58
2018-02-15T12:02:02.955Z,99725.33
2018-02-15T12:04:33.232Z,99722.88
2018-02-15T12:07:03.400Z,99737.56
2018-02-15T12:09:34.104Z,99733.70
2018-02-15T12:12:03.299Z,99741.75
2018-02-15T12:14:32.679Z,99744.73
2018-02-15T12:17:02.005Z,99731.45
2018-02-15T12:19:31.366Z,99734.35
2018-02-15T12:22:00.594Z,99734.75
2018-02-15T12:24:29.802Z,99738.73
2018-02-15T12:26:59.019Z,99738.19
2018-02-15T12:29:28.238Z,99739.86
2018-02-15T12:31:58.209Z,99736.16
2018-02-15T12:34:27.523Z,99736.14
2018-02-15T12:36:56.956Z,99729.21
2018-02-15T12:39:26.428Z,99726.20
2018-02-15T12:41:55.645Z,99725.36
2018-02-15T12:44:24.850Z,99713.10
2018-02-15T12:46:54.975Z,99712.16
2018-02-15T12:49:24.175Z,99718.42
2018-02-15T12:51:54.178Z,99718.75
2018-02-15T12:54:23.357Z,99706.89
2018-02-15T12:56:53.378Z,99707.89
2018-02-15T12:59:22.573Z,99711.55
2018-02-15T13:01:53.300Z,99722.11
2018-02-15T13:04:22.546Z,99715.85
2018-02-15T13:06:52.471Z,99716.29
2018-02-15T13:09:21.696Z,99720.64
2018-02-15T13:11:50.984Z,99728.55
2018-02-15T13:14:20.288Z,99727.07
2018-02-15T13:16:55.374Z,99734.52
2018-02-15T13:19:43.171Z,99739.72
2018-02-15T13:22:30.138Z,99735.42
2018-02-15T13:25:00.146Z,99744.27
2018-02-15T13:41:05.102Z,99760.42
2018-02-15T13:43:34.321Z,99751.40
2018-02-15T13:46:03.572Z,99755.09
2018-02-15T13:48:32.896Z,99748.78
2018-02-15T13:51:02.227Z,99756.22
2018-02-15T13:53:31.422Z,99753.92
2018-02-15T13:56:00.638Z,99756.16
2018-02-15T13:58:29.866Z,99772.09
2018-02-15T14:00:59.142Z,99762.66
2018-02-15T14:03:28.343Z,99768.97
2018-02-15T14:05:57.841Z,99770.66
2018-02-15T14:08:27.045Z,99765.11
2018-02-15T14:10:57.030Z,99772.22
2018-02-15T14:13:27.573Z,99772.98
2018-02-15T14:15:57.535Z,99790.82
2018-02-15T14:18:26.780Z,99786.84
2018-02-15T14:20:55.974Z,99794.37
2018-02-15T14:23:25.178Z,99802.94
2018-02-15T14:25:54.467Z,99800.87
2018-02-15T14:28:23.720Z,99809.29
2018-02-15T14:30:52.900Z,99810.88
2018-02-15T14:33:22.874Z,99811.78
2018-02-15T14:35:52.099Z,99806.77
2018-02-15T14:38:22.088Z,99821.28
2018-02-15T14:40:51.505Z,99820.74
2018-02-15T14:43:22.223Z,99823.19
2018-02-15T14:45:51.422Z,99815.96
2018-02-15T14:48:20.646Z,99829.43
2018-02-15T14:50:50.827Z,99826.50
2018-02-15T14:53:20.053Z,99827.15
2018-02-15T14:55:50.742Z,99831.73
2018-02-15T14:58:19.977Z,99827.39
2018-02-15T15:00:49.226Z,99827.00
2018-02-15T15:03:18.526Z,99829.19
2018-02-15T15:05:48.489Z,99828.27
2018-02-15T15:08:17.791Z,99830.20
2018-02-15T15:10:47.067Z,99840.78
2018-02-15T15:13:16.286Z,99836.14
2018-02-15T15:15:50.534Z,99846.52
2018-02-15T15:18:20.852Z,99837.16
2018-02-15T15:20:50.927Z,99845.27
2018-02-15T15:23:20.118Z,99853.09
2018-02-15T15:25:49.394Z,99859.34
2018-02-15T15:28:19.318Z,99868.77
2018-02-15T15:30:48.544Z,99859.84
2018-02-15T15:33:17.770Z,99864.52
2018-02-15T15:35:47.766Z,99872.77
2018-02-15T15:38:16.970Z,99870.87
2018-02-15T15:40:47.736Z,99867.88
2018-02-15T15:43:16.878Z,99870.19
2018-02-15T15:45:46.777Z,99872.64
2018-02-15T15:48:15.967Z,99871.41
2018-02-15T15:50:45.218Z,99881.13
2018-02-15T15:53:15.184Z,99881.47
2018-02-15T15:55:44.507Z,99884.06
2018-02-15T15:58:13.738Z,99890.99
2018-02-15T16:00:43.682Z,99898.25
2018-02-15T16:03:12.878Z,99897.55
2018-02-15T16:05:42.108Z,99899.70
2018-02-15T16:08:11.391Z,99903.74
2018-02-15T16:10:40.587Z,99911.67
2018-02-15T16:13:09.825Z,99911.52
2018-02-15T16:15:40.533Z,99906.08
2018-02-15T16:18:09.779Z,99911.14
2018-02-15T16:20:39.014Z,99913.44
2018-02-15T16:23:08.226Z,99916.83
2018-02-15T16:25:37.438Z,99919.70
2018-02-15T16:28:07.522Z,99920.11
2018-02-15T16:30:36.842Z,99926.25
2018-02-15T16:33:06.038Z,99925.95
2018-02-15T16:35:35.265Z,99929.80
2018-02-15T16:38:04.432Z,99929.92
2018-02-15T16:40:33.654Z,99930.84
2018-02-15T16:43:04.379Z,99935.28
2018-02-15T16:45:33.616Z,99941.02
2018-02-15T16:48:02.813Z,99946.56
2018-02-15T16:50:32.027Z,99943.22
2018-02-15T16:53:01.226Z,99953.28
2018-02-15T16:55:30.455Z,99959.62
2018-02-15T16:57:59.722Z,99959.48
2018-02-15T17:00:29.693Z,99966.48
2018-02-15T17:02:58.913Z,99966.88
2018-02-15T17:05:28.110Z,99974.34
2018-02-15T17:07:57.414Z,99978.36
2018-02-15T17:10:27.390Z,99982.12
2018-02-15T17:12:58.102Z,99980.30
2018-02-15T17:15:27.533Z,99985.69
2018-02-15T17:17:56.739Z,99981.32
2018-02-15T17:20:27.446Z,99987.03
2018-02-15T17:22:56.651Z,99988.29
2018-02-15T17:25:25.918Z,99987.69
2018-02-15T17:27:55.233Z,99994.23
2018-02-15T17:30:24.483Z,99996.80
2018-02-15T17:32:53.742Z,99997.91
2018-02-15T17:35:22.934Z,99997.11
2018-02-15T17:37:52.177Z,100005.25
2018-02-15T17:40:21.543Z,100003.08
2018-02-15T17:42:52.280Z,100006.06
2018-02-15T17:45:23.006Z,100013.81
2018-02-15T17:47:53.143Z,100022.89
2018-02-15T17:50:23.166Z,100021.50
2018-02-15T17:52:53.155Z,100024.99
2018-02-15T17:55:23.968Z,100030.33
2018-02-15T17:57:53.302Z,100025.47
2018-02-15T18:00:23.282Z,100035.05
2018-02-15T18:02:52.579Z,100039.64
2018-02-15T18:05:24.127Z,100042.09
2018-02-15T18:07:56.778Z,100043.73
2018-02-15T18:10:29.941Z,100043.89
2018-02-15T18:12:59.153Z,100045.69
2018-02-15T18:15:29.140Z,100050.01
2018-02-15T18:17:59.895Z,100049.36
2018-02-15T18:20:29.902Z,100049.06
2018-02-15T18:23:00.615Z,100055.93
2018-02-15T18:25:29.939Z,100061.99
2018-02-15T18:27:59.166Z,100056.55
2018-02-15T18:30:29.146Z,100062.03
2018-02-15T18:32:58.398Z,100061.80
2018-02-15T18:35:27.734Z,100068.92
2018-02-15T18:37:57.000Z,100076.91
2018-02-15T18:40:26.258Z,100080.21
2018-02-15T18:42:55.498Z,100087.03
2018-02-15T18:45:24.775Z,100084.89
2018-02-15T18:47:53.994Z,100075.27
2018-02-15T18:50:23.209Z,100082.51
2018-02-15T18:52:52.485Z,100095.81
2018-02-15T18:55:21.691Z,100093.67
2018-02-15T18:57:50.942Z,100094.34
2018-02-15T19:00:20.918Z,100100.63
2018-02-15T19:02:50.858Z,100111.87
2018-02-15T19:05:21.192Z,100108.73
2018-02-15T19:07:51.308Z,100114.31
2018-02-15T19:10:20.544Z,100119.08
2018-02-15T19:12:49.797Z,100130.98
2018-02-15T19:15:19.010Z,100130.53
2018-02-15T19:17:48.306Z,100142.34
2018-02-15T19:20:17.699Z,100142.75
2018-02-15T19:22:47.799Z,100140.30
2018-02-15T19:25:17.063Z,100147.20
2018-02-15T19:27:46.297Z,100153.32
2018-02-15T19:30:17.063Z,100152.05
2018-02-15T19:32:46.281Z,100153.05
2018-02-15T19:35:16.305Z,100158.38
2018-02-15T19:37:45.550Z,100164.27
2018-02-15T19:40:14.791Z,100167.44
2018-02-15T19:42:44.001Z,100165.39
2018-02-15T19:45:13.242Z,100173.94
2018-02-15T19:47:44.150Z,100168.89
2018-02-15T19:50:13.385Z,100174.11
2018-02-15T19:52:42.616Z,100181.56
2018-02-15T19:55:12.635Z,100172.21
2018-02-15T19:57:41.868Z,100172.36
2018-02-15T20:00:11.218Z,100186.28
2018-02-15T20:02:41.291Z,100176.66
2018-02-15T20:05:10.597Z,100184.36
2018-02-15T20:07:40.661Z,100185.61
2018-02-15T20:10:10.719Z,100185.02
2018-02-15T20:12:40.098Z,100186.44
2018-02-15T20:15:09.400Z,100190.64
2018-02-15T20:17:38.833Z,100192.84
2018-02-15T20:20:13.392Z,100200.80
2018-02-15T20:22:42.893Z,100197.73
2018-02-15T20:25:12.963Z,100197.18
2018-02-15T20:27:47.589Z,100208.32
2018-02-15T20:30:16.827Z,100206.32
2018-02-15T20:32:46.869Z,100216.83
2018-02-15T20:35:16.876Z,100213.98
2018-02-15T20:37:52.462Z,100220.08
2018-02-15T20:40:27.140Z,100217.70
2018-02-15T20:42:57.224Z,100230.39
2018-02-15T20:45:26.495Z,100228.69
2018-02-15T20:47:55.802Z,100228.60
2018-02-15T20:50:30.372Z,100233.18
2018-02-15T20:53:05.882Z,100244.69
2018-02-15T20:55:40.439Z,100253.48
2018-02-15T20:58:09.904Z,100255.88
2018-02-15T21:00:39.153Z,100262.82
2018-02-15T21:03:08.349Z,100265.37
2018-02-15T21:05:38.340Z,100269.31
2018-02-15T21:08:07.573Z,100272.80
2018-02-15T21:10:37.723Z,100266.77
2018-02-15T21:13:06.947Z,100275.87
2018-02-15T21:15:36.183Z,100275.81
2018-02-15T21:18:06.143Z,100276.55
2018-02-15T21:20:35.505Z,100279.54
2018-02-15T21:23:05.613Z,100285.89
2018-02-15T21:25:35.618Z,100287.03
2018-02-15T21:28:05.617Z,100288.72
2018-02-15T21:30:34.860Z,100292.11
2018-02-15T21:33:04.090Z,100293.29
2018-02-15T21:35:33.354Z,100298.43
2018-02-15T21:38:03.350Z,100307.02
2018-02-15T21:40:33.347Z,100309.20
2018-02-15T21:43:04.118Z,100314.48
2018-02-15T21:45:34.083Z,100315.59
2018-02-15T21:48:03.310Z,100316.64
2018-02-15T21:50:32.508Z,100320.43
2018-02-15T21:53:02.543Z,100316.53
2018-02-15T21:55:31.826Z,100318.46
2018-02-15T21:58:01.144Z,100324.80
2018-02-15T22:00:30.374Z,100325.63
2018-02-15T22:02:59.578Z,100332.94
2018-02-15T22:05:28.804Z,100334.98
2018-02-15T22:07:58.044Z,100344.06
2018-02-15T22:10:27.294Z,100345.92
2018-02-15T22:12:56.547Z,100343.00
2018-02-15T22:15:26.519Z,100353.23
2018-02-15T22:17:55.871Z,100354.06
2018-02-15T22:20:25.069Z,100359.84
2018-02-15T22:22:54.298Z,100361.59
2018-02-15T22:25:23.599Z,100364.00
2018-02-15T22:27:52.845Z,100364.40
2018-02-15T22:30:22.066Z,100361.53
2018-02-15T22:32:51.364Z,100364.55
2018-02-15T22:35:20.599Z,100367.69
2018-02-15T22:37:49.900Z,100374.11
2018-02-15T22:40:19.090Z,100371.84
2018-02-15T22:42:48.390Z,100386.59
2018-02-15T22:45:19.155Z,100396.06
2018-02-15T22:47:50.146Z,100392.94
2018-02-15T22:50:19.374Z,100396.87
2018-02-15T22:52:50.161Z,100397.48
2018-02-15T22:55:20.179Z,100397.64
2018-02-15T22:57:49.369Z,100411.78
2018-02-15T23:00:18.582Z,100412.19
2018-02-15T23:02:47.826Z,100415.17
2018-02-15T23:05:17.843Z,100409.95
2018-02-15T23:07:47.856Z,100405.96
2018-02-15T23:10:18.070Z,100411.34
2018-02-15T23:12:48.133Z,100418.09
2018-02-15T23:15:17.388Z,100421.73
2018-02-15T23:17:46.635Z,100419.45
2018-02-15T23:20:15.941Z,100423.89
2018-02-15T23:22:45.131Z,100426.29
2018-02-15T23:25:14.392Z,100428.20
2018-02-15T23:27:44.570Z,100437.77
2018-02-15T23:30:17.911Z,100439.39
2018-02-15T23:32:47.874Z,100433.48
2018-02-15T23:35:17.118Z,100433.05
2018-02-15T23:37:47.122Z,100437.22
2018-02-15T23:40:17.833Z,100439.39
2018-02-15T23:42:47.066Z,100445.02
2018-02-15T23:45:17.072Z,100448.25
2018-02-15T23:47:47.115Z,100453.64
2018-02-15T23:50:16.366Z,100451.47
2018-02-15T23:52:45.593Z,100454.98
2018-02-15T23:55:15.580Z,100459.69
2018-02-15T23:57:44.822Z,100466.93
